Kansai — JD3272 — position and weather

sailwx.info

Track history (hours):
 
Tides and Currents Weather Stations Pressure Air Temp Water Temp Dewpoint Dewpoint Depression Visibility Wind Speed Wind Dir Waves Ship Positions

Kansai

Last reported at 2015-Jan-30 02:33 UTC. Time now 2015-Jan-30 20:08 UTC.
Position N 34°37' E 134°57'.

Length 73 m; draft 4.2 m.

Type: Cargo ship. MMSI: 431003134.

Date/timePositionNaut miles runAvg speedWind from/ knotsBaromVisibWave heightAir tempDewpointWater temp
2015-Jan-30 02:33N 34°37' E 134°57'9 8.7
2015-Jan-30 01:33N 34°32' E 135°05'1410.9
2015-Jan-30 00:17N 34°19' E 135°00'910.8
2015-Jan-29 23:29N 34°10' E 135°00'168 8.7
2015-Jan-29 04:11N 34°41' E 138°21'171 4.4
2015-Jan-27 13:33N 33°59' E 135°01'1311.7
2015-Jan-27 12:24N 34°13' E 134°59'1112.5
2015-Jan-27 11:33N 34°23' E 135°00'1212.0
2015-Jan-27 10:34N 34°35' E 135°03'1312.0
2015-Jan-27 09:29N 34°40' E 134°49'2 0.2
2015-Jan-26 21:29N 34°42' E 134°47'0 0.0
2015-Jan-26 20:33N 34°42' E 134°47'0 0.0
2015-Jan-26 19:32N 34°42' E 134°47'0 0.0
2015-Jan-26 18:33N 34°42' E 134°47'0 0.1
2015-Jan-26 17:29N 34°42' E 134°47'1 0.4
2015-Jan-26 14:13N 34°41' E 134°47'812.9
2015-Jan-26 13:33N 34°37' E 134°56'9 8.6
2015-Jan-26 12:33N 34°32' E 135°04'1511.5
2015-Jan-26 11:15N 34°17' E 134°60'  
2015-Jan-23 02:16N 33°58' E 135°01'810.7
2015-Jan-23 01:33N 34°06' E 134°59'1110.1
2015-Jan-23 00:31N 34°16' E 134°59'9 9.0
2015-Jan-22 23:33N 34°25' E 135°00'9 9.4
2015-Jan-22 22:33N 34°34' E 135°02'8 7.5
2015-Jan-22 21:33N 34°37' E 134°54'5 0.1
2015-Jan-21 02:13N 34°40' E 134°50'811.5
2015-Jan-21 01:33N 34°38' E 134°58'1310.5
2015-Jan-21 00:21N 34°25' E 135°03'1112.6
2015-Jan-20 23:31N 34°15' E 134°60'  
Track history (hours):
 
Tides and Currents Weather Stations Pressure Air Temp Water Temp Dewpoint Dewpoint Depression Visibility Wind Speed Wind Dir Waves Ship Positions

Kansai

Last reported at 2015-Jan-30 02:33 UTC. Time now 2015-Jan-30 20:08 UTC.
Position N 34°37' E 134°57'.

Length 73 m; draft 4.2 m.

Type: Cargo ship. MMSI: 431003134.

Date/timePositionNaut miles runAvg speedWind from/ knotsBaromVisibWave heightAir tempDewpointWater temp
2015-Jan-30 02:33N 34°37' E 134°57'9 8.7
2015-Jan-30 01:33N 34°32' E 135°05'1410.9
2015-Jan-30 00:17N 34°19' E 135°00'910.8
2015-Jan-29 23:29N 34°10' E 135°00'168 8.7
2015-Jan-29 04:11N 34°41' E 138°21'171 4.4
2015-Jan-27 13:33N 33°59' E 135°01'1311.7
2015-Jan-27 12:24N 34°13' E 134°59'1112.5
2015-Jan-27 11:33N 34°23' E 135°00'1212.0
2015-Jan-27 10:34N 34°35' E 135°03'1312.0
2015-Jan-27 09:29N 34°40' E 134°49'2 0.2
2015-Jan-26 21:29N 34°42' E 134°47'0 0.0
2015-Jan-26 20:33N 34°42' E 134°47'0 0.0
2015-Jan-26 19:32N 34°42' E 134°47'0 0.0
2015-Jan-26 18:33N 34°42' E 134°47'0 0.1
2015-Jan-26 17:29N 34°42' E 134°47'1 0.4
2015-Jan-26 14:13N 34°41' E 134°47'812.9
2015-Jan-26 13:33N 34°37' E 134°56'9 8.6
2015-Jan-26 12:33N 34°32' E 135°04'1511.5
2015-Jan-26 11:15N 34°17' E 134°60'  
2015-Jan-23 02:16N 33°58' E 135°01'810.7
2015-Jan-23 01:33N 34°06' E 134°59'1110.1
2015-Jan-23 00:31N 34°16' E 134°59'9 9.0
2015-Jan-22 23:33N 34°25' E 135°00'9 9.4
2015-Jan-22 22:33N 34°34' E 135°02'8 7.5
2015-Jan-22 21:33N 34°37' E 134°54'5 0.1
2015-Jan-21 02:13N 34°40' E 134°50'811.5
2015-Jan-21 01:33N 34°38' E 134°58'1310.5
2015-Jan-21 00:21N 34°25' E 135°03'1112.6
2015-Jan-20 23:31N 34°15' E 134°60'  

Dump ship's entire track history